»·PEaware :: N204WT KAJO-KVCV

N204WT :: KAJO-KVCV

FLIGHT INFORMATION

Flight Status: Arrived
Operator: Privately registered:
United States
More flights under this callsign
Pilot: Daniel B. (28719)
Aircraft: CESSNA 172 SKYHAWK
(C172)
More flights by this aircraft type
Origin: KAJO Corona Mun
United States
Destination: KVCV Socal Logistics
United States
More flights between these airports :: More routes between these airports
Route: PDZ V442 APLES
File this flight plan on PilotEdge
Remarks:
Altitude:
(Current/Filed)
11,000ft
Speed:
(Current/Filed)
115kts
Departed: 22-Dec-20 07:32 PM
Arrived: 22-Dec-20 08:51 PM
Distance/Time
Traveled:
43nm/1:18
Distance/Time
To Go:
Arrived

Flight Plot

Page will automatically refresh every two minutes.


Map Options




Map Legend


Flown Route
Filed Route
Departure Airport
Arrival Airport
Navaid (VOR, NDB)
Fix

Horizontal Profiles

Position Reports

Time Latitude Longitude Heading Altitude Ground
Speed
22-Dec-20 18:48 33.896031 -117.602228 2 537ft 0kts
22-Dec-20 18:49 33.896031 -117.602228 2 537ft 0kts
22-Dec-20 18:50 33.896031 -117.602228 2 537ft 0kts
22-Dec-20 18:51 33.896031 -117.602228 2 537ft 0kts
22-Dec-20 18:52 33.896031 -117.602228 2 537ft 0kts
22-Dec-20 18:53 33.896031 -117.602228 2 537ft 0kts
22-Dec-20 18:54 33.896031 -117.602228 2 537ft 0kts
22-Dec-20 18:55 33.896031 -117.602228 2 537ft 0kts
22-Dec-20 18:56 33.896031 -117.602228 2 537ft 0kts
22-Dec-20 18:57 33.896031 -117.602228 2 537ft 0kts
22-Dec-20 18:58 33.896031 -117.602228 2 537ft 0kts
22-Dec-20 18:59 33.896031 -117.602228 2 537ft 0kts
22-Dec-20 19:00 33.896031 -117.602228 2 537ft 0kts
22-Dec-20 19:01 33.896031 -117.602228 2 537ft 0kts
22-Dec-20 19:02 33.896031 -117.602228 2 537ft 0kts
22-Dec-20 19:03 33.896031 -117.602228 2 537ft 0kts
22-Dec-20 19:04 33.896031 -117.602228 2 537ft 0kts
22-Dec-20 19:06 33.896031 -117.602228 2 537ft 0kts
22-Dec-20 19:07 33.896031 -117.602228 2 537ft 0kts
22-Dec-20 19:08 33.896031 -117.602228 2 537ft 0kts
22-Dec-20 19:09 33.896031 -117.602228 2 537ft 0kts
22-Dec-20 19:10 33.896031 -117.602228 2 537ft 0kts
22-Dec-20 19:11 33.896031 -117.602228 2 537ft 0kts
22-Dec-20 19:12 33.896031 -117.602228 2 537ft 0kts
22-Dec-20 19:13 33.896031 -117.602228 2 537ft 0kts
22-Dec-20 19:14 33.896031 -117.602228 2 537ft 0kts
22-Dec-20 19:15 33.896031 -117.602228 2 537ft 0kts
22-Dec-20 19:16 33.896031 -117.602228 2 537ft 0kts
22-Dec-20 19:17 33.896031 -117.602228 2 537ft 0kts
22-Dec-20 19:18 33.896031 -117.602228 2 537ft 0kts
22-Dec-20 19:19 33.896031 -117.602228 2 537ft 0kts
22-Dec-20 19:20 33.896031 -117.602228 2 537ft 0kts
22-Dec-20 19:21 33.896031 -117.602228 2 537ft 0kts
22-Dec-20 19:21 33.896031 -117.602228 2 537ft 0kts
22-Dec-20 19:23 33.896031 -117.602228 2 537ft 0kts
22-Dec-20 19:23 33.896031 -117.602228 2 537ft 0kts
22-Dec-20 19:24 33.896032 -117.602228 2 537ft 0kts
22-Dec-20 19:26 33.896038 -117.602253 233 537ft 1kts
22-Dec-20 19:26 33.896341 -117.602406 354 537ft 0kts
22-Dec-20 19:27 33.897021 -117.602414 4 537ft 2kts
22-Dec-20 19:28 33.897322 -117.597761 74 537ft 7kts
22-Dec-20 19:29 33.897331 -117.597736 61 537ft 0kts
22-Dec-20 19:30 33.897423 -117.597626 26 537ft 5kts
22-Dec-20 19:31 33.903714 -117.605419 66 1034ft 81kts
22-Dec-20 19:32 33.905059 -117.577531 71 1822ft 90kts
22-Dec-20 19:33 33.912452 -117.549278 68 2654ft 90kts
22-Dec-20 19:34 33.923175 -117.523294 45 3435ft 87kts
22-Dec-20 19:35 33.937783 -117.502355 43 4115ft 87kts
22-Dec-20 19:36 33.938353 -117.510350 197 4825ft 76kts
22-Dec-20 19:37 33.917089 -117.520575 272 5300ft 83kts
22-Dec-20 19:38 33.926748 -117.541223 38 4903ft 135kts
22-Dec-20 19:39 33.946325 -117.513222 65 5030ft 117kts
22-Dec-20 19:40 33.931312 -117.513431 239 5804ft 77kts
22-Dec-20 19:41 33.917270 -117.532746 271 6505ft 67kts
22-Dec-20 19:42 33.931213 -117.523652 46 7098ft 84kts
22-Dec-20 19:43 33.933339 -117.501372 197 7685ft 83kts
22-Dec-20 19:44 33.922456 -117.521082 248 8229ft 74kts
22-Dec-20 19:45 33.924556 -117.534322 37 8783ft 80kts
22-Dec-20 19:46 33.938885 -117.508478 45 8985ft 116kts
22-Dec-20 19:47 33.926449 -117.499860 271 8984ft 103kts
22-Dec-20 19:48 33.917633 -117.530981 239 8986ft 108kts
22-Dec-20 19:49 33.931405 -117.535944 50 9028ft 128kts
22-Dec-20 19:50 33.950021 -117.503123 37 8999ft 126kts
22-Dec-20 19:51 33.935046 -117.488689 246 9015ft 106kts
22-Dec-20 19:52 33.921807 -117.519928 253 8987ft 105kts
22-Dec-20 19:53 33.922595 -117.544457 16 9028ft 115kts
22-Dec-20 19:54 33.944296 -117.514369 39 9024ft 126kts
22-Dec-20 19:55 33.970641 -117.498050 14 9002ft 117kts
22-Dec-20 19:56 33.995796 -117.483114 16 8993ft 117kts
22-Dec-20 19:57 34.021089 -117.468114 17 9016ft 115kts
22-Dec-20 19:58 34.047055 -117.452238 16 9017ft 113kts
22-Dec-20 19:59 34.073189 -117.436960 16 9053ft 111kts
22-Dec-20 20:00 34.099877 -117.420797 17 9050ft 112kts
22-Dec-20 20:01 34.129716 -117.402381 18 9026ft 114kts
22-Dec-20 20:02 34.157980 -117.385157 17 8995ft 112kts
22-Dec-20 20:03 34.185445 -117.368451 18 9050ft 109kts
22-Dec-20 20:04 34.212016 -117.351917 17 9283ft 99kts
22-Dec-20 20:05 34.234312 -117.338648 15 9872ft 86kts
22-Dec-20 20:06 34.254209 -117.326517 11 10410ft 76kts
22-Dec-20 20:07 34.271822 -117.316260 13 10906ft 67kts
22-Dec-20 20:08 34.291481 -117.304571 9 11046ft 94kts
22-Dec-20 20:09 34.317983 -117.290138 11 11018ft 106kts
22-Dec-20 20:10 34.344584 -117.273746 15 11015ft 109kts
22-Dec-20 20:11 34.371610 -117.256638 8 11003ft 106kts
22-Dec-20 20:12 34.398969 -117.241219 13 11001ft 109kts
22-Dec-20 20:13 34.426218 -117.224787 12 10998ft 108kts
22-Dec-20 20:14 34.452421 -117.208870 16 10682ft 106kts
22-Dec-20 20:15 34.478506 -117.191763 11 10191ft 107kts
22-Dec-20 20:16 34.505044 -117.176155 14 9527ft 106kts
22-Dec-20 20:17 34.531534 -117.160575 13 9037ft 102kts
22-Dec-20 20:18 34.561079 -117.146237 10 8744ft 125kts
22-Dec-20 20:19 34.594240 -117.143102 347 8243ft 119kts
22-Dec-20 20:20 34.627482 -117.146373 342 7738ft 120kts
22-Dec-20 20:21 34.659406 -117.156224 333 7292ft 117kts
22-Dec-20 20:22 34.689738 -117.171155 326 6824ft 117kts
22-Dec-20 20:23 34.716046 -117.192719 316 6624ft 110kts
22-Dec-20 20:24 34.739314 -117.216725 308 6614ft 108kts
22-Dec-20 20:25 34.758668 -117.244415 299 6611ft 106kts
22-Dec-20 20:26 34.773889 -117.275031 297 6601ft 105kts
22-Dec-20 20:27 34.786737 -117.309200 284 6201ft 118kts
22-Dec-20 20:28 34.795015 -117.348549 283 5695ft 120kts
22-Dec-20 20:29 34.791878 -117.379525 184 5094ft 104kts
22-Dec-20 20:30 34.758918 -117.377920 187 4516ft 119kts
22-Dec-20 20:31 34.726841 -117.381353 189 4330ft 111kts
22-Dec-20 20:32 34.695164 -117.384253 190 4272ft 115kts
22-Dec-20 20:33 34.665659 -117.383884 191 3535ft 102kts
22-Dec-20 20:34 34.636912 -117.386162 184 3213ft 102kts
22-Dec-20 20:35 34.609215 -117.387662 190 3657ft 84kts
22-Dec-20 20:36 34.589162 -117.392566 234 4509ft 67kts
22-Dec-20 20:37 34.600330 -117.411927 296 5174ft 76kts
22-Dec-20 20:38 34.611871 -117.430789 305 5856ft 74kts
22-Dec-20 20:39 34.620834 -117.451707 288 6471ft 73kts
22-Dec-20 20:40 34.632814 -117.479623 291 6513ft 107kts
22-Dec-20 20:41 34.647331 -117.511490 301 6529ft 109kts
22-Dec-20 20:42 34.665507 -117.541585 300 6510ft 109kts
22-Dec-20 20:43 34.683081 -117.570678 288 6368ft 96kts
22-Dec-20 20:44 34.665520 -117.576512 130 5895ft 115kts
22-Dec-20 20:45 34.654106 -117.538879 99 5348ft 126kts
22-Dec-20 20:46 34.652050 -117.496236 95 4966ft 123kts
22-Dec-20 20:47 34.648825 -117.454832 100 4562ft 130kts
22-Dec-20 20:48 34.645299 -117.412930 99 3816ft 111kts
22-Dec-20 20:49 34.631633 -117.386196 187 3083ft 79kts
22-Dec-20 20:51 34.616520 -117.386657 157 2819ft 14kts
22-Dec-20 20:52 34.616029 -117.385558 95 2820ft 0kts
22-Dec-20 20:53 34.616024 -117.385303 90 2820ft 8kts
22-Dec-20 20:54 34.612536 -117.384193 182 2824ft 17kts
22-Dec-20 20:55 34.607900 -117.384158 180 2833ft 16kts
22-Dec-20 20:56 34.603257 -117.384113 179 2839ft 17kts
22-Dec-20 20:57 34.598700 -117.384071 179 2848ft 16kts
22-Dec-20 20:58 34.595256 -117.383974 169 2854ft 10kts
22-Dec-20 20:59 34.592391 -117.380961 135 2861ft 15kts
22-Dec-20 21:00 34.590105 -117.378117 134 2868ft 7kts
22-Dec-20 21:01 34.589338 -117.375278 136 2868ft 1kts
22-Dec-20 21:02 34.589272 -117.375200 135 2868ft 0kts
22-Dec-20 21:03 34.589272 -117.375200 135 2868ft 0kts
22-Dec-20 21:04 34.589272 -117.375200 135 2868ft 0kts
22-Dec-20 21:05 34.589272 -117.375200 135 2868ft 0kts

Navigation Log

Ident Type
Flight plan parsing failed, navigation log unavailable